createdAt,value
2018-02-17T00:00:03.465Z,87.39
2018-02-17T00:01:13.532Z,88.06
2018-02-17T00:02:23.603Z,87.96
2018-02-17T00:03:33.661Z,87.87
2018-02-17T00:04:43.713Z,87.87
2018-02-17T00:05:53.523Z,87.87
2018-02-17T00:07:03.335Z,87.68
2018-02-17T00:08:13.129Z,87.49
2018-02-17T00:09:22.681Z,87.68
2018-02-17T00:10:32.751Z,87.68
2018-02-17T00:11:42.617Z,87.77
2018-02-17T00:12:52.678Z,87.96
2018-02-17T00:14:02.759Z,87.77
2018-02-17T00:15:12.836Z,87.87
2018-02-17T00:16:22.895Z,87.73
2018-02-17T00:17:32.941Z,87.45
2018-02-17T00:18:42.482Z,87.35
2018-02-17T00:19:53.270Z,87.35
2018-02-17T00:21:03.074Z,87.68
2018-02-17T00:22:13.440Z,87.73
2018-02-17T00:23:23.226Z,87.73
2018-02-17T00:24:33.294Z,87.73
2018-02-17T00:25:43.349Z,87.63
2018-02-17T00:26:53.429Z,87.63
2018-02-17T00:28:03.501Z,87.63
2018-02-17T00:29:13.102Z,87.82
2018-02-17T00:30:22.918Z,87.82
2018-02-17T00:31:32.964Z,87.73
2018-02-17T00:32:43.043Z,87.63
2018-02-17T00:33:53.099Z,87.63
2018-02-17T00:35:03.164Z,87.63
2018-02-17T00:36:12.969Z,87.63
2018-02-17T00:37:23.062Z,87.63
2018-02-17T00:38:33.131Z,87.35
2018-02-17T00:39:42.948Z,87.35
2018-02-17T00:40:52.747Z,87.54
2018-02-17T00:42:02.816Z,87.35
2018-02-17T00:43:12.864Z,87.16
2018-02-17T00:44:22.926Z,87.35
2018-02-17T00:45:32.477Z,87.92
2018-02-17T00:46:42.415Z,87.54
2018-02-17T00:47:52.491Z,87.54
2018-02-17T00:49:02.549Z,87.45
2018-02-17T00:50:12.601Z,87.92
2018-02-17T00:51:22.662Z,87.35
2018-02-17T00:52:32.274Z,87.35
2018-02-17T00:53:42.340Z,87.63
2018-02-17T00:54:52.386Z,87.63
2018-02-17T00:56:02.467Z,87.45
2018-02-17T00:57:12.517Z,87.45
2018-02-17T00:58:22.369Z,87.45
2018-02-17T00:59:32.164Z,87.45
2018-02-17T01:00:42.235Z,87.45
2018-02-17T01:01:52.036Z,87.54
2018-02-17T01:03:02.164Z,87.54
2018-02-17T01:04:11.999Z,87.35
2018-02-17T01:05:21.536Z,87.63
2018-02-17T01:06:31.600Z,87.49
2018-02-17T01:07:41.410Z,87.58
2018-02-17T01:08:51.474Z,87.58
2018-02-17T01:10:01.539Z,87.49
2018-02-17T01:11:11.083Z,87.49
2018-02-17T01:12:21.145Z,87.58
2018-02-17T01:13:31.219Z,87.54
2018-02-17T01:14:41.274Z,87.54
2018-02-17T01:15:50.541Z,87.54
2018-02-17T01:17:00.076Z,87.58
2018-02-17T01:18:09.612Z,87.45
2018-02-17T01:19:19.399Z,87.68
2018-02-17T01:20:29.216Z,87.58
2018-02-17T01:21:39.276Z,87.73
2018-02-17T01:22:49.051Z,87.45
2018-02-17T01:23:58.573Z,87.45
2018-02-17T01:25:08.631Z,87.63
2018-02-17T01:26:18.159Z,87.45
2018-02-17T01:27:28.323Z,87.45
2018-02-17T01:28:38.377Z,87.35
2018-02-17T01:29:48.979Z,87.25
2018-02-17T01:30:58.775Z,87.16
2018-02-17T01:32:08.571Z,87.92
2018-02-17T01:33:18.368Z,87.35
2018-02-17T01:34:28.440Z,87.92
2018-02-17T01:35:37.971Z,87.35
2018-02-17T01:36:47.763Z,87.54
2018-02-17T01:37:57.825Z,87.73
2018-02-17T01:39:07.616Z,87.54
2018-02-17T01:40:17.693Z,87.73
2018-02-17T01:41:27.754Z,87.25
2018-02-17T01:42:37.811Z,87.54
2018-02-17T01:43:47.873Z,87.35
2018-02-17T01:44:57.936Z,87.54
2018-02-17T01:46:07.744Z,87.54
2018-02-17T01:47:17.796Z,87.54
2018-02-17T01:48:27.867Z,87.54
2018-02-17T01:49:37.931Z,87.45
2018-02-17T01:50:47.985Z,87.54
2018-02-17T01:51:58.875Z,87.45
2018-02-17T01:53:08.408Z,87.63
2018-02-17T01:54:18.208Z,87.63
2018-02-17T01:55:28.002Z,87.54
2018-02-17T01:56:38.062Z,87.54
2018-02-17T01:57:47.860Z,87.54
2018-02-17T01:58:57.391Z,87.54
2018-02-17T02:00:07.177Z,87.63
2018-02-17T02:01:16.964Z,87.54
2018-02-17T02:02:27.006Z,87.54
2018-02-17T02:03:36.808Z,87.63
2018-02-17T02:04:46.861Z,87.63
2018-02-17T02:05:56.642Z,87.54
2018-02-17T02:07:06.455Z,87.73
2018-02-17T02:08:16.517Z,87.54
2018-02-17T02:09:26.318Z,87.63
2018-02-17T02:10:35.845Z,87.54
2018-02-17T02:11:45.897Z,87.25
2018-02-17T02:12:55.698Z,86.68
2018-02-17T02:14:05.553Z,86.68
2018-02-17T02:15:15.606Z,87.45
2018-02-17T02:16:25.141Z,87.54
2018-02-17T02:17:34.937Z,87.45
2018-02-17T02:18:44.455Z,87.45
2018-02-17T02:19:54.237Z,87.45
2018-02-17T02:21:04.048Z,87.63
2018-02-17T02:22:14.119Z,87.35
2018-02-17T02:23:24.171Z,87.45
2018-02-17T02:24:34.234Z,87.45
2018-02-17T02:25:43.778Z,87.63
2018-02-17T02:26:53.831Z,87.63
2018-02-17T02:28:03.630Z,87.45
2018-02-17T02:29:13.685Z,87.45
2018-02-17T02:30:23.483Z,87.63
2018-02-17T02:31:33.279Z,87.45
2018-02-17T02:32:43.356Z,87.54
2018-02-17T02:33:52.903Z,87.54
2018-02-17T02:35:02.442Z,87.45
2018-02-17T02:36:12.247Z,87.54
2018-02-17T02:37:22.063Z,87.45
2018-02-17T02:38:32.153Z,87.45
2018-02-17T02:39:42.220Z,87.63
2018-02-17T02:40:52.304Z,87.54
2018-02-17T02:42:02.367Z,87.63
2018-02-17T02:43:12.433Z,87.45
2018-02-17T02:44:22.515Z,87.54
2018-02-17T02:45:32.581Z,87.54
2018-02-17T02:46:42.373Z,87.45
2018-02-17T02:47:52.428Z,87.54
2018-02-17T02:49:02.266Z,87.45
2018-02-17T02:50:12.338Z,87.54
2018-02-17T02:51:22.140Z,87.63
2018-02-17T02:52:32.201Z,87.54
2018-02-17T02:53:42.266Z,87.54
2018-02-17T02:54:52.329Z,87.63
2018-02-17T02:56:01.879Z,87.54
2018-02-17T02:57:11.676Z,87.73
2018-02-17T02:58:21.735Z,87.73
2018-02-17T02:59:31.841Z,87.35
2018-02-17T03:00:42.947Z,87.73
2018-02-17T03:01:53.009Z,87.54
2018-02-17T03:03:02.806Z,87.45
2018-02-17T03:04:12.595Z,87.54
2018-02-17T03:05:22.392Z,87.54
2018-02-17T03:36:42.006Z,82.72
2018-02-17T03:37:52.050Z,83.58
2018-02-17T03:39:02.104Z,84.71
2018-02-17T03:40:12.139Z,85.85
2018-02-17T03:41:22.189Z,86.41
2018-02-17T03:42:32.278Z,87.46
2018-02-17T03:43:42.327Z,87.55
2018-02-17T03:44:52.119Z,88.02
2018-02-17T03:46:02.144Z,88.54
2018-02-17T03:47:12.192Z,88.45
2018-02-17T03:48:22.269Z,88.45
2018-02-17T03:49:32.061Z,88.64
2018-02-17T03:50:42.106Z,88.35
2018-02-17T03:51:51.895Z,88.54
2018-02-17T03:53:01.693Z,88.4
2018-02-17T03:54:11.223Z,88.59
2018-02-17T03:55:21.278Z,88.68
2018-02-17T03:56:31.070Z,88.49
2018-02-17T03:57:40.594Z,88.4
2018-02-17T03:58:50.388Z,88.49
2018-02-17T04:00:00.439Z,87.92
2018-02-17T04:01:10.489Z,87.97
2018-02-17T04:02:20.543Z,88.16
2018-02-17T04:03:30.574Z,87.87
2018-02-17T04:04:40.625Z,87.77
2018-02-17T04:05:50.479Z,88.06
2018-02-17T04:07:00.013Z,88.25
2018-02-17T04:08:09.802Z,87.77
2018-02-17T04:09:19.846Z,87.97
2018-02-17T04:10:29.897Z,87.77
2018-02-17T04:11:39.944Z,87.77
2018-02-17T04:12:49.766Z,87.49
2018-02-17T04:13:59.568Z,87.4
2018-02-17T04:15:09.365Z,87.4
2018-02-17T04:16:19.417Z,87.59
2018-02-17T04:17:29.467Z,87.77
2018-02-17T04:18:38.725Z,87.4
2018-02-17T04:19:48.506Z,87.77
2018-02-17T04:20:58.293Z,87.59
2018-02-17T04:22:08.368Z,87.59
2018-02-17T04:23:18.157Z,87.21
2018-02-17T04:24:27.686Z,87.68
2018-02-17T04:25:37.745Z,87.68
2018-02-17T04:26:47.541Z,87.68
2018-02-17T04:27:57.743Z,87.59
2018-02-17T04:29:07.803Z,87.59
2018-02-17T04:30:17.599Z,87.77
2018-02-17T04:31:27.652Z,87.59
2018-02-17T04:32:37.438Z,87.3
2018-02-17T04:33:46.710Z,87.49
2018-02-17T04:34:56.557Z,87.59
2018-02-17T04:36:06.620Z,87.49
2018-02-17T04:37:16.676Z,87.77
2018-02-17T04:38:26.718Z,87.12
2018-02-17T04:39:36.760Z,87.21
2018-02-17T04:40:47.501Z,87.87
2018-02-17T04:41:57.287Z,87.49
2018-02-17T04:43:07.073Z,87.3
2018-02-17T04:44:16.605Z,87.45
2018-02-17T04:45:26.407Z,87.45
2018-02-17T04:46:36.201Z,87.26
2018-02-17T04:47:46.263Z,87.35
2018-02-17T04:48:56.061Z,87.45
2018-02-17T04:50:06.136Z,87.26
2018-02-17T04:51:16.195Z,87.26
2018-02-17T04:52:26.322Z,87.45
2018-02-17T04:53:36.107Z,87.45
2018-02-17T04:54:45.889Z,87.45
2018-02-17T04:55:55.687Z,87.45
2018-02-17T04:57:05.475Z,87.45
2018-02-17T04:58:15.045Z,87.45
2018-02-17T04:59:24.835Z,87.35
2018-02-17T05:00:34.885Z,87.54
2018-02-17T05:01:44.699Z,87.54
2018-02-17T05:02:54.497Z,87.45
2018-02-17T05:04:04.341Z,87.45
2018-02-17T05:05:14.405Z,87.26
2018-02-17T05:06:24.469Z,86.98
2018-02-17T05:07:34.527Z,87.26
2018-02-17T05:08:44.579Z,86.69
2018-02-17T05:09:54.651Z,86.88
2018-02-17T05:11:04.175Z,87.07
2018-02-17T05:12:14.215Z,86.88
2018-02-17T05:13:24.254Z,86.98
2018-02-17T05:14:34.046Z,87.16
2018-02-17T05:15:43.574Z,87.07
2018-02-17T05:16:53.634Z,86.88
2018-02-17T05:18:03.431Z,87.07
2018-02-17T05:19:12.692Z,87.16
2018-02-17T05:20:22.213Z,87.16
2018-02-17T05:21:32.056Z,87.07
2018-02-17T05:22:41.875Z,86.98
2018-02-17T05:23:51.938Z,87.07
2018-02-17T05:25:02.000Z,87.16
2018-02-17T05:26:11.793Z,87.16
2018-02-17T05:27:21.607Z,87.35
2018-02-17T05:28:31.648Z,87.35
2018-02-17T05:29:41.712Z,87.16
2018-02-17T05:30:51.764Z,86.98
2018-02-17T05:32:01.808Z,87.16
2018-02-17T05:33:11.865Z,87.16
2018-02-17T05:34:21.665Z,86.88
2018-02-17T05:35:31.723Z,86.88
2018-02-17T05:36:41.775Z,86.88
2018-02-17T05:37:51.845Z,87.07
2018-02-17T05:39:01.912Z,87.07
2018-02-17T05:40:11.970Z,86.98
2018-02-17T05:41:21.758Z,86.88
2018-02-17T05:42:31.819Z,87.07
2018-02-17T05:43:41.875Z,87.16
2018-02-17T05:44:51.662Z,87.07
2018-02-17T05:46:01.446Z,87.07
2018-02-17T05:47:11.218Z,87.07
2018-02-17T05:48:21.000Z,87.16
2018-02-17T05:49:31.057Z,87.16
2018-02-17T05:50:40.856Z,87.16
2018-02-17T05:51:50.892Z,87.35
2018-02-17T05:53:00.693Z,86.98
2018-02-17T05:54:10.489Z,86.98
2018-02-17T05:55:20.548Z,86.88
2018-02-17T05:56:30.600Z,87.07
2018-02-17T05:57:40.398Z,87.16
2018-02-17T05:58:50.460Z,86.98
2018-02-17T05:59:59.980Z,86.98
2018-02-17T06:01:10.058Z,87.16
2018-02-17T06:02:19.865Z,87.16
2018-02-17T06:03:29.380Z,86.98
2018-02-17T06:04:39.440Z,86.98
2018-02-17T06:05:49.497Z,87.16
2018-02-17T06:06:59.546Z,87.07
2018-02-17T06:08:08.846Z,87.35
2018-02-17T06:09:18.393Z,86.98
2018-02-17T06:10:28.451Z,86.98
2018-02-17T06:11:38.263Z,87.07
2018-02-17T06:12:48.316Z,87.07
2018-02-17T06:13:58.364Z,87.16
2018-02-17T06:15:08.157Z,86.98
2018-02-17T06:16:18.229Z,86.98
2018-02-17T06:17:28.046Z,87.02
2018-02-17T06:18:38.107Z,87.31
2018-02-17T06:19:48.056Z,86.83
2018-02-17T06:20:57.588Z,86.93
2018-02-17T06:22:07.377Z,86.93
2018-02-17T06:23:17.433Z,87.31
2018-02-17T06:24:27.221Z,86.88
2018-02-17T06:25:37.322Z,86.98
2018-02-17T06:26:46.887Z,86.98
2018-02-17T06:27:56.946Z,86.88
2018-02-17T06:29:06.480Z,86.93
2018-02-17T06:30:16.272Z,86.88
2018-02-17T06:31:25.822Z,86.93
2018-02-17T06:32:35.864Z,87.02
2018-02-17T06:33:45.652Z,87.02
2018-02-17T06:34:55.699Z,87.07
2018-02-17T06:36:05.763Z,87.02
2018-02-17T06:37:16.005Z,86.98
2018-02-17T06:38:25.792Z,86.93
2018-02-17T06:39:35.585Z,87.16
2018-02-17T06:40:45.378Z,87.02
2018-02-17T06:41:55.185Z,87.12
2018-02-17T06:43:05.246Z,86.98
2018-02-17T06:44:14.772Z,87.02
2018-02-17T06:45:24.308Z,86.98
2018-02-17T06:46:33.832Z,86.88
2018-02-17T06:47:43.881Z,86.98
2018-02-17T06:48:53.714Z,87.16
2018-02-17T06:50:03.506Z,87.26
2018-02-17T06:51:13.576Z,87.16
2018-02-17T06:52:23.624Z,86.69
2018-02-17T06:53:33.671Z,86.69
2018-02-17T06:54:43.718Z,86.69
2018-02-17T06:55:52.715Z,86.69
2018-02-17T06:57:02.870Z,86.6
2018-02-17T06:58:12.932Z,87.07
2018-02-17T06:59:22.723Z,86.79
2018-02-17T07:00:32.547Z,86.79
2018-02-17T07:01:42.589Z,86.88
2018-02-17T07:02:52.635Z,86.69
2018-02-17T07:04:02.434Z,86.69
2018-02-17T07:05:11.972Z,86.6
2018-02-17T07:06:21.768Z,86.69
2018-02-17T07:07:31.302Z,86.88
2018-02-17T07:08:41.107Z,86.69
2018-02-17T07:09:50.890Z,86.69
2018-02-17T07:11:00.678Z,86.69
2018-02-17T07:12:10.514Z,86.88
2018-02-17T07:13:20.310Z,86.69
2018-02-17T07:14:30.091Z,86.88
2018-02-17T07:15:40.146Z,86.88
2018-02-17T07:16:50.198Z,86.79
2018-02-17T07:18:00.264Z,87.16
2018-02-17T07:19:10.072Z,86.5
2018-02-17T07:20:20.135Z,86.41
2018-02-17T07:21:30.029Z,86.41
2018-02-17T07:22:39.553Z,86.5
2018-02-17T07:23:49.101Z,86.5
2018-02-17T07:24:58.629Z,86.69
2018-02-17T07:26:08.684Z,87.16
2018-02-17T07:27:18.235Z,86.98
2018-02-17T07:28:28.354Z,86.41
2018-02-17T07:29:38.409Z,86.69
2018-02-17T07:30:48.456Z,86.6
2018-02-17T07:31:57.463Z,86.41
2018-02-17T07:33:06.719Z,86.5
2018-02-17T07:34:17.409Z,86.5
2018-02-17T07:35:26.931Z,86.79
2018-02-17T07:36:36.722Z,86.88
2018-02-17T07:37:46.260Z,86.79
2018-02-17T07:38:56.087Z,86.6
2018-02-17T07:40:06.144Z,87.07
2018-02-17T07:41:16.270Z,86.5
2018-02-17T07:42:26.059Z,86.69
2018-02-17T07:43:35.854Z,86.88
2018-02-17T07:44:45.917Z,86.93
2018-02-17T07:45:55.442Z,87.26
2018-02-17T07:47:05.513Z,86.83
2018-02-17T07:48:15.569Z,86.88
2018-02-17T07:49:25.622Z,87.07
2018-02-17T07:50:35.655Z,86.69
2018-02-17T07:51:45.724Z,87.16
2018-02-17T07:52:55.773Z,87.07
2018-02-17T07:54:05.816Z,87.07
2018-02-17T07:55:15.338Z,86.88
2018-02-17T07:56:25.136Z,86.6
2018-02-17T07:57:35.226Z,86.6
2018-02-17T07:58:45.283Z,86.6
2018-02-17T07:59:55.749Z,86.88
2018-02-17T08:01:05.564Z,87.26
2018-02-17T08:02:15.365Z,86.79
2018-02-17T08:03:25.154Z,86.88
2018-02-17T08:04:34.681Z,86.79
2018-02-17T08:05:44.733Z,86.88
2018-02-17T08:06:54.270Z,86.69
2018-02-17T08:08:04.332Z,87.07
2018-02-17T08:09:14.118Z,86.98
2018-02-17T08:10:24.182Z,86.5
2018-02-17T08:11:34.241Z,86.41
2018-02-17T08:12:44.292Z,86.41
2018-02-17T08:13:54.364Z,86.41
2018-02-17T08:15:04.158Z,86.41
2018-02-17T08:16:14.314Z,86.31
2018-02-17T08:17:24.113Z,86.22
2018-02-17T08:18:34.186Z,86.31
2018-02-17T08:19:43.973Z,86.5
2018-02-17T08:20:53.761Z,86.22
2018-02-17T08:22:03.589Z,86.31
2018-02-17T08:23:13.407Z,86.88
2018-02-17T08:24:23.460Z,86.69
2018-02-17T08:25:33.565Z,86.26
2018-02-17T08:26:43.628Z,86.07
2018-02-17T08:27:53.681Z,86.64
2018-02-17T08:29:03.746Z,86.07
2018-02-17T08:30:13.541Z,86.45
2018-02-17T08:31:23.654Z,86.74
2018-02-17T08:32:33.189Z,86.35
2018-02-17T08:33:43.274Z,86.45
2018-02-17T08:34:53.331Z,86.26
2018-02-17T08:36:03.117Z,86.45
2018-02-17T08:37:12.916Z,86.55
2018-02-17T08:38:22.991Z,86.16
2018-02-17T08:39:32.822Z,86.16
2018-02-17T08:40:42.883Z,86.35
2018-02-17T08:41:52.947Z,86.07
2018-02-17T08:43:02.759Z,86.35
2018-02-17T08:44:12.814Z,86.16
2018-02-17T08:45:22.870Z,86.16
2018-02-17T08:46:33.223Z,86.26
2018-02-17T08:47:42.752Z,86.16
2018-02-17T08:48:52.814Z,86.26
2018-02-17T08:50:02.116Z,86.16
2018-02-17T08:51:12.237Z,86.26
2018-02-17T08:52:22.025Z,85.88
2018-02-17T08:53:31.840Z,86.07
2018-02-17T08:54:41.897Z,86.16
2018-02-17T08:55:51.961Z,86.16
2018-02-17T08:57:01.811Z,86.55
2018-02-17T08:58:11.881Z,86.16
2018-02-17T08:59:21.686Z,86.74
2018-02-17T09:00:31.486Z,86.93
2018-02-17T09:01:41.013Z,86.26
2018-02-17T09:02:50.831Z,86.26
2018-02-17T09:04:00.883Z,86.26
2018-02-17T09:05:10.672Z,86.64
2018-02-17T09:06:20.731Z,86.64
2018-02-17T09:07:30.260Z,86.16
2018-02-17T09:08:40.064Z,86.55
2018-02-17T09:09:49.897Z,86.35
2018-02-17T09:11:00.036Z,86.55
2018-02-17T09:12:09.879Z,86.16
2018-02-17T09:13:19.961Z,86.26
2018-02-17T09:14:29.755Z,86.26
2018-02-17T09:15:39.532Z,86.07
2018-02-17T09:16:49.334Z,85.88
2018-02-17T09:17:59.734Z,86.11
2018-02-17T09:19:09.527Z,86.11
2018-02-17T09:20:19.400Z,85.83
2018-02-17T09:21:29.255Z,85.64
2018-02-17T09:22:39.322Z,85.55
2018-02-17T09:23:49.124Z,86.49
2018-02-17T09:24:58.672Z,85.83
2018-02-17T09:26:07.933Z,86.11
2018-02-17T09:27:17.733Z,85.83
2018-02-17T09:28:27.785Z,85.55
2018-02-17T09:29:37.588Z,85.83
2018-02-17T09:30:47.380Z,86.11
2018-02-17T09:31:56.919Z,86.3
2018-02-17T09:33:06.716Z,85.74
2018-02-17T09:34:16.758Z,85.55
2018-02-17T09:35:26.826Z,86.59
2018-02-17T09:36:36.880Z,85.74
2018-02-17T09:37:46.955Z,85.93
2018-02-17T09:38:57.020Z,86.02
2018-02-17T09:40:07.087Z,85.36
2018-02-17T09:41:17.145Z,85.45
2018-02-17T09:42:26.700Z,86.02
2018-02-17T09:43:36.517Z,86.11
2018-02-17T09:44:46.584Z,86.21
2018-02-17T09:45:56.513Z,85.64
2018-02-17T09:47:06.162Z,86.02
2018-02-17T09:48:16.218Z,85.83
2018-02-17T09:49:26.326Z,85.49
2018-02-17T09:50:36.364Z,85.26
2018-02-17T09:51:46.438Z,85.4
2018-02-17T09:52:56.691Z,85.78
2018-02-17T09:54:06.499Z,85.55
2018-02-17T09:55:16.285Z,85.55
2018-02-17T09:56:25.821Z,85.26
2018-02-17T09:57:35.935Z,85.93
2018-02-17T09:58:46.020Z,85.45
2018-02-17T09:59:55.559Z,85.55
2018-02-17T10:01:05.351Z,85.93
2018-02-17T10:02:15.407Z,85.83
2018-02-17T10:03:26.649Z,85.93
2018-02-17T10:04:36.557Z,85.83
2018-02-17T10:05:46.094Z,85.93
2018-02-17T10:06:56.162Z,85.74
2018-02-17T10:08:05.967Z,85.93
2018-02-17T10:09:16.057Z,85.74
2018-02-17T10:10:26.151Z,86.59
2018-02-17T10:11:36.217Z,85.64
2018-02-17T10:12:46.332Z,86.02
2018-02-17T10:13:56.161Z,86.59
2018-02-17T10:15:06.024Z,86.3
2018-02-17T10:16:16.102Z,86.11
2018-02-17T10:17:25.709Z,86.3
2018-02-17T10:18:35.546Z,86.11
2018-02-17T10:19:45.507Z,86.97
2018-02-17T10:20:55.334Z,86.11
2018-02-17T10:22:05.438Z,86.93
2018-02-17T10:23:15.257Z,86.68
2018-02-17T10:24:25.467Z,86.97
2018-02-17T10:25:35.087Z,86.93
2018-02-17T10:26:44.663Z,86.21
2018-02-17T10:27:54.481Z,86.49
2018-02-17T10:29:05.576Z,86.16
2018-02-17T10:30:15.726Z,86.16
2018-02-17T10:31:25.800Z,86.35
2018-02-17T10:32:35.867Z,86.55
2018-02-17T10:33:45.721Z,86.45
2018-02-17T10:34:55.803Z,87.12
2018-02-17T10:36:05.880Z,86.93
2018-02-17T10:37:15.955Z,86.64
2018-02-17T10:38:26.042Z,86.55
2018-02-17T10:39:36.229Z,87.12
2018-02-17T10:40:46.145Z,86.64
2018-02-17T10:41:56.710Z,86.93
2018-02-17T10:43:06.033Z,86.16
2018-02-17T10:44:15.868Z,86.45
2018-02-17T10:45:25.808Z,86.64
2018-02-17T10:46:35.903Z,86.07
2018-02-17T10:47:45.998Z,86.45
2018-02-17T10:48:55.822Z,85.88
2018-02-17T10:50:05.900Z,86.45
2018-02-17T10:51:15.978Z,85.88
2018-02-17T10:52:26.092Z,86.26
2018-02-17T10:53:36.229Z,86.07
2018-02-17T10:54:46.524Z,86.26
2018-02-17T10:55:56.606Z,86.16
2018-02-17T10:57:06.694Z,85.97
2018-02-17T10:58:16.776Z,86.07
2018-02-17T10:59:26.588Z,86.26
2018-02-17T11:00:36.229Z,86.26
2018-02-17T11:01:46.374Z,86.07
2018-02-17T11:02:56.171Z,86.45
2018-02-17T11:04:06.228Z,86.07
2018-02-17T11:05:15.516Z,86.26
2018-02-17T11:06:26.148Z,86.45
2018-02-17T11:07:35.949Z,86.26
2018-02-17T11:08:45.751Z,85.88
2018-02-17T11:09:55.852Z,85.88
2018-02-17T11:11:05.672Z,86.07
2018-02-17T11:12:15.287Z,86.07
2018-02-17T11:13:25.416Z,86.16
2018-02-17T11:14:35.498Z,86.07
2018-02-17T11:15:45.029Z,86.07
2018-02-17T11:16:54.836Z,86.16
2018-02-17T11:18:04.757Z,86.35
2018-02-17T11:19:14.870Z,85.88
2018-02-17T11:20:25.171Z,85.88
2018-02-17T11:21:34.454Z,86.07
2018-02-17T11:22:44.026Z,86.07
2018-02-17T11:23:53.635Z,86.26
2018-02-17T11:25:03.426Z,86.35
2018-02-17T11:26:13.517Z,86.55
2018-02-17T11:27:23.135Z,85.88
2018-02-17T11:28:33.208Z,85.97
2018-02-17T11:29:43.302Z,86.26
2018-02-17T11:30:53.137Z,85.88
2018-02-17T11:32:02.964Z,86.16
2018-02-17T11:33:13.868Z,86.07
2018-02-17T11:34:23.944Z,86.16
2018-02-17T11:35:34.089Z,86.55
2018-02-17T11:36:44.393Z,86.45
2018-02-17T11:37:54.271Z,86.07
2018-02-17T11:39:04.378Z,86.07
2018-02-17T11:40:14.486Z,86.07
2018-02-17T11:41:24.574Z,86.16
2018-02-17T11:42:34.668Z,86.07
2018-02-17T11:43:44.787Z,86.07
2018-02-17T11:44:54.571Z,86.07
2018-02-17T11:46:04.140Z,86.26
2018-02-17T11:47:14.088Z,86.16
2018-02-17T11:48:23.910Z,86.07
2018-02-17T11:49:34.062Z,86.16
2018-02-17T11:50:43.881Z,86.07
2018-02-17T11:51:53.708Z,86.26
2018-02-17T11:53:03.659Z,86.26
2018-02-17T11:54:13.503Z,86.26
2018-02-17T11:55:23.628Z,86.07
2018-02-17T11:56:33.460Z,86.16
2018-02-17T11:57:43.310Z,85.88
2018-02-17T11:58:53.120Z,86.45
2018-02-17T12:00:02.693Z,86.16
2018-02-17T12:01:12.783Z,86.35
2018-02-17T12:02:22.602Z,86.35
2018-02-17T12:03:32.732Z,86.35
2018-02-17T12:04:42.553Z,86.35
2018-02-17T12:05:52.656Z,86.35
2018-02-17T12:07:02.768Z,86.64
2018-02-17T12:08:12.877Z,86.45
2018-02-17T12:09:22.991Z,86.07
2018-02-17T12:10:33.533Z,86.07
2018-02-17T12:11:43.675Z,86.26
2018-02-17T12:12:53.237Z,86.26
2018-02-17T12:14:03.352Z,86.07
2018-02-17T12:15:13.168Z,86.26
2018-02-17T12:16:22.720Z,86.16
2018-02-17T12:17:32.534Z,85.88
2018-02-17T12:18:42.633Z,86.07
2018-02-17T12:19:52.184Z,85.97
2018-02-17T12:21:02.352Z,86.26
2018-02-17T12:22:11.890Z,86.45
2018-02-17T12:23:21.961Z,86.07
2018-02-17T12:24:32.061Z,86.07
2018-02-17T12:25:42.160Z,85.6
2018-02-17T12:26:52.045Z,86.07
2018-02-17T12:28:01.622Z,85.97
2018-02-17T12:29:11.727Z,85.97
2018-02-17T12:30:21.817Z,86.45
2018-02-17T12:31:31.481Z,85.97
2018-02-17T12:32:41.725Z,85.88
2018-02-17T12:33:51.814Z,86.16
2018-02-17T12:35:01.990Z,86.26
2018-02-17T12:36:12.058Z,86.07
2018-02-17T12:37:22.549Z,86.07
2018-02-17T12:38:32.381Z,86.07
2018-02-17T12:39:42.307Z,86.07
2018-02-17T12:40:52.062Z,86.16
2018-02-17T12:42:01.972Z,85.97
2018-02-17T12:43:11.927Z,85.97
2018-02-17T12:44:21.969Z,86.45
2018-02-17T12:45:32.334Z,86.26
2018-02-17T12:46:42.226Z,86.16
2018-02-17T12:47:52.326Z,86.26
2018-02-17T12:49:02.492Z,86.16
2018-02-17T12:50:12.541Z,86.26
2018-02-17T12:51:22.355Z,86.45
2018-02-17T12:52:32.170Z,86.16
2018-02-17T12:53:42.354Z,86.16
2018-02-17T12:54:52.169Z,86.26
2018-02-17T12:56:02.005Z,86.16
2018-02-17T12:57:11.805Z,86.07
2018-02-17T12:58:21.886Z,86.35
2018-02-17T12:59:31.960Z,86.35
2018-02-17T13:00:41.239Z,86.93
2018-02-17T13:01:51.044Z,86.93
2018-02-17T13:03:01.876Z,86.35
2018-02-17T13:04:13.065Z,86.45
2018-02-17T13:05:23.160Z,86.55
2018-02-17T13:06:33.101Z,86.35
2018-02-17T13:07:42.946Z,86.26
2018-02-17T13:08:52.549Z,86.55
2018-02-17T13:10:02.635Z,86.64
2018-02-17T13:11:12.452Z,86.45
2018-02-17T13:12:22.561Z,86.35
2018-02-17T13:13:33.520Z,86.74
2018-02-17T13:14:43.907Z,86.83
2018-02-17T13:15:53.992Z,86.55
2018-02-17T13:17:03.937Z,86.55
2018-02-17T13:18:14.005Z,86.45
2018-02-17T13:19:24.095Z,86.93
2018-02-17T13:20:33.909Z,86.83
2018-02-17T13:21:43.991Z,86.35
2018-02-17T13:22:53.580Z,86.55
2018-02-17T13:24:03.717Z,86.64
2018-02-17T13:25:13.822Z,86.83
2018-02-17T13:26:23.902Z,87.02
2018-02-17T13:27:33.743Z,86.74
2018-02-17T13:28:43.851Z,86.93
2018-02-17T13:29:53.929Z,86.83
2018-02-17T13:31:04.006Z,86.93
2018-02-17T13:32:13.547Z,86.93
2018-02-17T13:33:23.355Z,86.64
2018-02-17T13:34:33.160Z,86.74
2018-02-17T13:35:43.024Z,86.64
2018-02-17T13:36:52.877Z,86.64
2018-02-17T13:38:02.721Z,86.93
2018-02-17T13:39:12.523Z,86.55
2018-02-17T13:40:22.100Z,86.83
2018-02-17T13:41:32.184Z,87.3
2018-02-17T13:42:41.493Z,87.3
2018-02-17T13:43:51.565Z,86.55
2018-02-17T13:45:01.346Z,86.64
2018-02-17T13:46:11.148Z,87.12
2018-02-17T13:47:20.961Z,86.93
2018-02-17T13:48:31.069Z,86.35
2018-02-17T13:49:41.236Z,86.93
2018-02-17T13:50:51.309Z,87.12
2018-02-17T13:52:01.157Z,86.64
2018-02-17T13:53:10.963Z,86.74
2018-02-17T13:54:21.029Z,86.74
2018-02-17T13:55:31.112Z,86.74
2018-02-17T13:56:41.193Z,86.64
2018-02-17T13:57:50.741Z,87.21
2018-02-17T13:59:00.756Z,87.21
2018-02-17T14:00:10.574Z,87.3
2018-02-17T14:01:20.439Z,86.74
2018-02-17T14:02:30.270Z,87.3
2018-02-17T14:03:40.349Z,86.83
2018-02-17T14:04:50.452Z,86.55
2018-02-17T14:06:00.297Z,86.74
2018-02-17T14:07:10.153Z,86.83
2018-02-17T14:08:20.225Z,86.93
2018-02-17T14:09:30.049Z,86.74
2018-02-17T14:10:39.874Z,86.64
2018-02-17T14:11:50.017Z,86.64
2018-02-17T14:13:00.112Z,87.12
2018-02-17T14:14:09.932Z,86.55
2018-02-17T14:15:20.006Z,87.12
2018-02-17T14:16:29.638Z,86.74
2018-02-17T14:17:39.707Z,87.12
2018-02-17T14:18:49.528Z,86.64
2018-02-17T14:19:59.608Z,86.93
2018-02-17T14:21:09.166Z,86.93
2018-02-17T14:22:19.231Z,86.55
2018-02-17T14:23:29.308Z,86.64
2018-02-17T14:24:38.872Z,86.74
2018-02-17T14:25:48.672Z,86.55
2018-02-17T14:26:58.793Z,86.93
2018-02-17T14:28:08.609Z,86.74
2018-02-17T14:29:18.674Z,86.74
2018-02-17T14:30:28.852Z,86.93
2018-02-17T14:31:38.948Z,86.83
2018-02-17T14:32:48.819Z,86.64
2018-02-17T14:33:58.714Z,87.12
2018-02-17T14:35:08.779Z,87.12
2018-02-17T14:36:18.878Z,87.12
2018-02-17T14:37:28.959Z,86.93
2018-02-17T14:38:38.781Z,87.02
2018-02-17T14:39:48.626Z,87.02
2018-02-17T14:40:58.692Z,87.02
2018-02-17T14:42:08.785Z,87.21
2018-02-17T14:43:18.863Z,86.93
2018-02-17T14:44:28.926Z,87.02
2018-02-17T14:48:02.245Z,87.12
2018-02-17T14:49:12.060Z,87.21
2018-02-17T14:50:22.251Z,87.21
2018-02-17T14:51:32.347Z,87.02
2018-02-17T14:52:42.436Z,87.02
2018-02-17T14:53:52.515Z,87.02
2018-02-17T14:55:02.587Z,87.02
2018-02-17T14:56:12.683Z,87.21
2018-02-17T14:57:22.223Z,87.21
2018-02-17T14:58:32.285Z,87.02
2018-02-17T14:59:42.118Z,87.12
2018-02-17T15:00:52.254Z,86.93
2018-02-17T15:02:01.816Z,87.02
2018-02-17T15:03:11.911Z,87.12
2018-02-17T15:04:21.707Z,87.12
2018-02-17T15:05:31.266Z,87.3
2018-02-17T15:06:41.140Z,86.93
2018-02-17T15:07:51.062Z,87.12
2018-02-17T15:09:00.605Z,87.02
2018-02-17T15:10:10.430Z,87.3
2018-02-17T15:11:20.777Z,87.68
2018-02-17T15:12:30.864Z,87.49
2018-02-17T15:13:42.665Z,87.49
2018-02-17T15:14:52.500Z,87.59
2018-02-17T15:16:02.316Z,87.4
2018-02-17T15:17:12.411Z,87.49
2018-02-17T15:18:22.237Z,87.49
2018-02-17T15:19:32.299Z,87.49
2018-02-17T15:20:42.119Z,87.49
2018-02-17T15:21:51.936Z,87.4
2018-02-17T15:23:01.757Z,87.4
2018-02-17T15:24:11.845Z,87.4
2018-02-17T15:25:21.400Z,87.4
2018-02-17T15:26:31.218Z,87.59
2018-02-17T15:27:41.281Z,87.4
2018-02-17T15:28:50.838Z,87.21
2018-02-17T15:30:00.705Z,87.49
2018-02-17T15:31:10.772Z,87.49
2018-02-17T15:32:21.004Z,87.21
2018-02-17T15:33:31.090Z,87.12